createdAt,value
2023-03-21T00:00:43.637Z,8.53
2023-03-21T00:03:46.816Z,8.59
2023-03-21T00:06:48.979Z,8.49
2023-03-21T00:09:50.872Z,8.44
2023-03-21T00:12:58.634Z,8.35
2023-03-21T00:16:08.346Z,8.30
2023-03-21T00:19:12.176Z,8.29
2023-03-21T00:22:13.837Z,8.32
2023-03-21T00:25:15.682Z,8.25
2023-03-21T00:28:17.206Z,8.02
2023-03-21T00:31:18.798Z,7.85
2023-03-21T00:34:27.149Z,7.70
2023-03-21T00:37:39.327Z,7.71
2023-03-21T00:40:48.779Z,7.79
2023-03-21T00:43:52.074Z,7.70
2023-03-21T00:47:06.143Z,7.85
2023-03-21T00:50:09.850Z,7.90
2023-03-21T00:53:11.439Z,7.94
2023-03-21T00:56:13.030Z,8.17
2023-03-21T00:59:14.671Z,8.13
2023-03-21T01:02:24.170Z,8.01
2023-03-21T01:05:46.678Z,7.84
2023-03-21T01:08:52.625Z,7.67
2023-03-21T01:11:54.610Z,7.32
2023-03-21T01:14:56.497Z,7.32
2023-03-21T01:17:58.123Z,7.20
2023-03-21T01:21:01.303Z,7.25
2023-03-21T01:24:03.474Z,7.20
2023-03-21T01:27:06.012Z,7.13
2023-03-21T01:30:17.364Z,7.02
2023-03-21T01:33:22.427Z,6.95
2023-03-21T01:36:26.443Z,7.04
2023-03-21T01:39:35.009Z,6.98
2023-03-21T01:42:36.897Z,6.90
2023-03-21T01:46:10.040Z,6.90
2023-03-21T01:49:41.694Z,6.81
2023-03-21T01:52:50.148Z,6.67
2023-03-21T01:56:03.058Z,6.76
2023-03-21T01:59:32.615Z,6.82
2023-03-21T02:02:58.185Z,6.84
2023-03-21T02:06:40.831Z,6.86
2023-03-21T02:09:53.448Z,7.06
2023-03-21T02:13:09.509Z,6.97
2023-03-21T02:16:37.772Z,7.08
2023-03-21T02:19:55.968Z,7.13
2023-03-21T02:23:12.412Z,7.11
2023-03-21T02:26:57.950Z,7.20
2023-03-21T02:30:28.253Z,7.37
2023-03-21T02:33:56.557Z,7.34
2023-03-21T02:37:04.382Z,7.43
2023-03-21T02:40:18.301Z,7.41
2023-03-21T02:43:23.303Z,7.43
2023-03-21T02:46:42.902Z,7.46
2023-03-21T02:49:50.437Z,7.40
2023-03-21T02:52:54.797Z,7.38
2023-03-21T02:55:58.889Z,7.34
2023-03-21T02:59:01.176Z,7.27
2023-03-21T03:02:03.286Z,7.29
2023-03-21T03:05:34.096Z,7.45
2023-03-21T03:09:02.158Z,7.38
2023-03-21T03:12:24.317Z,7.24
2023-03-21T03:15:56.899Z,7.34
2023-03-21T03:19:01.472Z,7.38
2023-03-21T03:22:10.430Z,7.40
2023-03-21T03:25:23.094Z,7.26
2023-03-21T03:28:36.487Z,7.24
2023-03-21T03:32:30.518Z,7.28
2023-03-21T03:35:32.440Z,7.23
2023-03-21T03:38:36.991Z,7.21
2023-03-21T03:45:13.616Z,7.27
2023-03-21T03:48:26.081Z,7.23
2023-03-21T03:51:36.618Z,7.23
2023-03-21T03:54:52.129Z,7.30
2023-03-21T03:57:56.053Z,7.32
2023-03-21T04:00:57.798Z,7.19
2023-03-21T04:04:12.366Z,7.30
2023-03-21T04:07:16.491Z,7.37
2023-03-21T04:10:19.511Z,7.39
2023-03-21T04:13:21.972Z,7.34
2023-03-21T04:16:41.678Z,7.31
2023-03-21T04:19:43.532Z,7.37
2023-03-21T04:22:45.408Z,7.46
2023-03-21T04:25:56.359Z,7.48
2023-03-21T04:29:05.290Z,7.47
2023-03-21T04:32:27.724Z,7.51
2023-03-21T04:35:42.652Z,7.50
2023-03-21T04:38:48.472Z,7.48
2023-03-21T04:41:51.187Z,7.45
2023-03-21T04:44:52.707Z,7.48
2023-03-21T04:47:54.407Z,7.02
2023-03-21T04:50:56.109Z,6.49
2023-03-21T04:53:57.682Z,6.37
2023-03-21T04:56:59.936Z,6.38
2023-03-21T05:00:05.672Z,6.38
2023-03-21T05:03:09.184Z,6.19
2023-03-21T05:06:11.096Z,6.20
2023-03-21T05:09:13.384Z,6.11
2023-03-21T05:12:15.752Z,6.07
2023-03-21T05:15:17.297Z,6.13
2023-03-21T05:18:24.840Z,5.97
2023-03-21T05:21:43.595Z,6.10
2023-03-21T05:24:51.052Z,6.32
2023-03-21T05:28:07.841Z,6.42
2023-03-21T05:31:10.056Z,6.19
2023-03-21T05:34:13.267Z,6.09
2023-03-21T05:37:15.554Z,6.17
2023-03-21T05:40:23.672Z,6.43
2023-03-21T05:43:25.647Z,6.58
2023-03-21T05:46:28.116Z,6.53
2023-03-21T05:49:30.707Z,6.49
2023-03-21T05:52:35.756Z,6.62
2023-03-21T05:55:44.675Z,6.56
2023-03-21T05:58:55.532Z,6.58
2023-03-21T06:01:58.600Z,6.32
2023-03-21T06:05:00.942Z,5.96
2023-03-21T06:08:03.060Z,5.89
2023-03-21T06:11:05.843Z,5.92
2023-03-21T06:14:10.742Z,5.94
2023-03-21T06:17:13.270Z,6.02
2023-03-21T06:20:21.555Z,5.99
2023-03-21T06:23:27.493Z,6.07
2023-03-21T06:26:29.536Z,6.14
2023-03-21T06:29:31.721Z,6.12
2023-03-21T06:32:33.306Z,6.08
2023-03-21T06:35:44.156Z,6.15
2023-03-21T06:38:46.968Z,6.29
2023-03-21T06:41:48.619Z,6.38
2023-03-21T06:44:50.323Z,6.56
2023-03-21T06:47:51.970Z,6.61
2023-03-21T06:51:08.750Z,6.65
2023-03-21T06:54:14.741Z,6.79
2023-03-21T06:57:28.395Z,6.97
2023-03-21T07:00:30.547Z,7.13
2023-03-21T07:03:34.213Z,7.19
2023-03-21T07:06:37.273Z,7.41
2023-03-21T07:09:40.804Z,7.41
2023-03-21T07:12:42.717Z,7.57
2023-03-21T07:15:54.999Z,7.67
2023-03-21T07:18:56.626Z,7.65
2023-03-21T07:21:58.196Z,7.81
2023-03-21T07:25:05.011Z,7.97
2023-03-21T07:28:12.859Z,8.09
2023-03-21T07:31:16.739Z,8.19
2023-03-21T07:34:18.961Z,8.26
2023-03-21T07:37:20.687Z,8.40
2023-03-21T07:40:22.330Z,8.49
2023-03-21T07:43:24.449Z,8.64
2023-03-21T07:46:27.603Z,8.78
2023-03-21T07:49:30.124Z,9.04
2023-03-21T07:52:32.314Z,9.16
2023-03-21T07:55:35.094Z,9.29
2023-03-21T07:58:36.856Z,9.48
2023-03-21T08:01:38.540Z,9.43
2023-03-21T08:04:40.207Z,9.48
2023-03-21T08:07:41.764Z,9.50
2023-03-21T08:10:44.409Z,9.54
2023-03-21T08:13:45.977Z,9.59
2023-03-21T08:16:47.830Z,9.69
2023-03-21T08:19:49.530Z,9.85
2023-03-21T08:22:51.504Z,10.23
2023-03-21T08:25:54.656Z,10.35
2023-03-21T08:28:56.291Z,10.34
2023-03-21T08:31:58.228Z,10.60
2023-03-21T08:35:01.507Z,10.72
2023-03-21T08:38:03.756Z,10.83
2023-03-21T08:41:05.813Z,10.81
2023-03-21T08:44:07.626Z,10.57
2023-03-21T08:47:09.307Z,10.45
2023-03-21T08:50:14.624Z,10.54
2023-03-21T08:53:16.289Z,10.35
2023-03-21T08:56:18.454Z,10.44
2023-03-21T08:59:20.385Z,10.39
2023-03-21T09:02:22.042Z,10.40
2023-03-21T09:05:25.806Z,10.16
2023-03-21T09:08:27.578Z,10.20
2023-03-21T09:11:29.206Z,10.23
2023-03-21T09:14:30.795Z,10.21
2023-03-21T09:17:33.119Z,10.51
2023-03-21T09:20:38.318Z,10.54
2023-03-21T09:23:44.851Z,10.54
2023-03-21T09:26:50.214Z,11.04
2023-03-21T09:29:52.648Z,11.27
2023-03-21T09:32:55.694Z,11.14
2023-03-21T09:36:00.395Z,11.46
2023-03-21T09:39:03.984Z,11.49
2023-03-21T09:42:13.131Z,11.65
2023-03-21T09:45:24.326Z,11.68
2023-03-21T09:48:57.044Z,11.77
2023-03-21T09:52:03.598Z,11.88
2023-03-21T09:55:18.704Z,11.91
2023-03-21T09:58:40.329Z,12.11
2023-03-21T10:01:45.622Z,12.38
2023-03-21T10:04:47.356Z,12.48
2023-03-21T10:07:57.537Z,12.76
2023-03-21T10:11:19.583Z,12.62
2023-03-21T10:14:49.930Z,12.77
2023-03-21T10:18:04.976Z,13.00
2023-03-21T10:21:07.343Z,13.07
2023-03-21T10:24:13.271Z,13.08
2023-03-21T10:27:14.919Z,12.85
2023-03-21T10:30:50.889Z,13.40
2023-03-21T10:33:56.066Z,13.46
2023-03-21T10:36:58.553Z,13.40
2023-03-21T10:40:00.155Z,13.43
2023-03-21T10:43:20.651Z,13.76
2023-03-21T10:46:23.732Z,14.03
2023-03-21T10:49:26.762Z,13.94
2023-03-21T10:52:32.383Z,14.37
2023-03-21T10:55:34.777Z,14.03
2023-03-21T10:58:42.772Z,14.01
2023-03-21T11:01:50.377Z,14.26
2023-03-21T11:04:55.958Z,14.43
2023-03-21T11:08:04.357Z,14.44
2023-03-21T11:11:09.290Z,14.90
2023-03-21T11:14:26.973Z,15.04
2023-03-21T11:17:30.521Z,14.54
2023-03-21T11:20:33.654Z,14.74
2023-03-21T11:23:41.185Z,14.80
2023-03-21T11:26:45.835Z,15.18
2023-03-21T11:29:52.131Z,15.13
2023-03-21T11:32:58.850Z,15.09
2023-03-21T11:36:04.851Z,15.31
2023-03-21T11:39:09.186Z,15.58
2023-03-21T11:42:32.819Z,15.46
2023-03-21T11:45:35.868Z,15.26
2023-03-21T11:48:48.902Z,15.25
2023-03-21T11:52:13.393Z,15.33
2023-03-21T11:55:46.993Z,15.34
2023-03-21T11:58:57.648Z,15.08
2023-03-21T12:02:11.109Z,15.00
2023-03-21T12:05:21.627Z,14.84
2023-03-21T12:08:32.184Z,14.95
2023-03-21T12:12:01.499Z,15.12
2023-03-21T12:15:26.272Z,14.81
2023-03-21T12:18:27.757Z,15.11
2023-03-21T12:21:34.770Z,15.11
2023-03-21T12:24:50.596Z,15.07
2023-03-21T12:28:32.158Z,15.15
2023-03-21T12:31:56.968Z,15.10
2023-03-21T12:35:07.073Z,15.08
2023-03-21T12:38:28.278Z,15.06
2023-03-21T12:41:55.980Z,14.63
2023-03-21T12:45:11.568Z,14.98
2023-03-21T12:48:35.563Z,14.68
2023-03-21T12:51:42.346Z,15.10
2023-03-21T12:54:52.335Z,15.29
2023-03-21T12:58:01.827Z,15.37
2023-03-21T13:01:05.505Z,15.41
2023-03-21T13:04:40.262Z,15.13
2023-03-21T13:07:45.949Z,15.26
2023-03-21T13:10:48.131Z,15.10
2023-03-21T13:14:01.791Z,15.23
2023-03-21T13:17:27.277Z,15.50
2023-03-21T13:20:53.016Z,15.40
2023-03-21T13:24:18.256Z,15.47
2023-03-21T13:27:39.451Z,15.32
2023-03-21T13:30:41.530Z,15.38
2023-03-21T13:33:47.198Z,15.54
2023-03-21T13:36:51.018Z,15.48
2023-03-21T13:39:52.638Z,15.07
2023-03-21T13:42:59.773Z,15.27
2023-03-21T13:46:15.595Z,15.48
2023-03-21T13:49:27.639Z,15.53
2023-03-21T13:52:29.327Z,15.31
2023-03-21T13:55:36.651Z,15.20
2023-03-21T13:58:44.322Z,15.23
2023-03-21T14:02:06.150Z,15.35
2023-03-21T14:05:20.101Z,15.30
2023-03-21T14:08:34.758Z,15.16
2023-03-21T14:11:44.411Z,15.11
2023-03-21T14:15:06.752Z,15.30
2023-03-21T14:18:28.203Z,15.33
2023-03-21T14:21:37.269Z,15.44
2023-03-21T14:24:38.889Z,15.44
2023-03-21T14:27:43.862Z,15.42
2023-03-21T14:30:49.883Z,15.42
2023-03-21T14:33:54.171Z,15.25
2023-03-21T14:36:58.576Z,15.06
2023-03-21T14:40:06.831Z,15.29
2023-03-21T14:43:11.547Z,15.58
2023-03-21T14:46:13.380Z,15.44
2023-03-21T14:49:21.783Z,15.56
2023-03-21T14:52:41.641Z,15.58
2023-03-21T14:55:57.596Z,15.76
2023-03-21T14:58:59.299Z,15.75
2023-03-21T15:02:04.782Z,15.62
2023-03-21T15:05:32.057Z,15.67
2023-03-21T15:08:33.720Z,15.45
2023-03-21T15:11:39.470Z,15.61
2023-03-21T15:14:41.644Z,15.59
2023-03-21T15:17:43.562Z,15.39
2023-03-21T15:20:47.580Z,15.38
2023-03-21T15:23:53.163Z,15.41
2023-03-21T15:27:00.731Z,15.19
2023-03-21T15:30:02.387Z,15.21
2023-03-21T15:33:10.647Z,15.19
2023-03-21T15:36:12.669Z,14.83
2023-03-21T15:39:17.641Z,15.06
2023-03-21T15:42:32.542Z,15.11
2023-03-21T15:45:34.165Z,15.14
2023-03-21T15:48:35.848Z,15.15
2023-03-21T15:51:37.779Z,15.10
2023-03-21T15:54:59.312Z,15.13
2023-03-21T15:58:06.283Z,14.99
2023-03-21T16:01:20.448Z,14.84
2023-03-21T16:04:23.693Z,14.95
2023-03-21T16:07:26.132Z,14.83
2023-03-21T16:10:37.156Z,14.87
2023-03-21T16:13:38.961Z,14.71
2023-03-21T16:16:40.856Z,14.82
2023-03-21T16:19:43.330Z,14.77
2023-03-21T16:22:44.964Z,14.69
2023-03-21T16:25:47.072Z,14.76
2023-03-21T16:28:48.982Z,14.69
2023-03-21T16:31:50.667Z,14.74
2023-03-21T16:34:53.574Z,14.63
2023-03-21T16:37:55.303Z,14.68
2023-03-21T16:40:56.978Z,14.65
2023-03-21T16:43:58.685Z,14.55
2023-03-21T16:47:02.340Z,14.56
2023-03-21T16:50:21.161Z,14.47
2023-03-21T16:53:22.792Z,14.50
2023-03-21T16:56:35.426Z,14.51
2023-03-21T16:59:38.482Z,14.49
2023-03-21T17:02:40.582Z,14.34
2023-03-21T17:05:42.201Z,14.23
2023-03-21T17:08:44.408Z,14.16
2023-03-21T17:11:46.023Z,14.19
2023-03-21T17:14:47.613Z,14.09
2023-03-21T17:17:50.301Z,14.08
2023-03-21T17:20:52.318Z,13.94
2023-03-21T17:23:54.618Z,13.86
2023-03-21T17:26:56.212Z,13.91
2023-03-21T17:29:58.356Z,13.86
2023-03-21T17:33:00.728Z,13.84
2023-03-21T17:36:02.398Z,13.64
2023-03-21T17:39:06.793Z,13.54
2023-03-21T17:42:15.844Z,13.34
2023-03-21T17:45:17.922Z,13.39
2023-03-21T17:48:20.595Z,13.53
2023-03-21T17:51:26.045Z,13.53
2023-03-21T17:54:27.778Z,13.56
2023-03-21T17:57:29.448Z,13.68
2023-03-21T18:00:31.532Z,13.79
2023-03-21T18:03:33.123Z,13.64
2023-03-21T18:06:36.096Z,13.73
2023-03-21T18:09:37.677Z,13.79
2023-03-21T18:12:40.949Z,13.85
2023-03-21T18:15:44.138Z,13.86
2023-03-21T18:18:46.652Z,13.43
2023-03-21T18:21:48.428Z,13.56
2023-03-21T18:24:50.276Z,13.53
2023-03-21T18:28:09.847Z,13.51
2023-03-21T18:31:19.829Z,13.69
2023-03-21T18:34:21.839Z,13.64
2023-03-21T18:37:23.733Z,13.70
2023-03-21T18:40:25.398Z,13.66
2023-03-21T18:44:01.365Z,13.54
2023-03-21T18:46:50.301Z,13.45
2023-03-21T18:53:14.152Z,13.49
2023-03-21T18:56:48.265Z,13.34
2023-03-21T18:59:38.853Z,13.30
2023-03-21T19:02:46.247Z,13.51
2023-03-21T19:05:48.442Z,13.43
2023-03-21T19:08:50.041Z,13.29
2023-03-21T19:11:51.924Z,13.26
2023-03-21T19:14:54.189Z,13.10
2023-03-21T19:18:34.005Z,12.89
2023-03-21T19:21:18.091Z,12.84
2023-03-21T19:24:27.646Z,12.60
2023-03-21T19:27:30.245Z,12.51
2023-03-21T19:30:31.924Z,12.60
2023-03-21T19:33:33.815Z,12.75
2023-03-21T19:36:35.807Z,12.60
2023-03-21T19:39:37.886Z,12.42
2023-03-21T19:42:40.340Z,12.52
2023-03-21T19:45:48.142Z,12.56
2023-03-21T19:48:50.129Z,12.55
2023-03-21T19:51:52.084Z,12.37
2023-03-21T19:54:53.832Z,12.33
2023-03-21T19:57:55.533Z,12.41
2023-03-21T20:00:57.233Z,12.45
2023-03-21T20:03:59.427Z,12.38
2023-03-21T20:07:01.330Z,12.20
2023-03-21T20:10:03.809Z,12.07
2023-03-21T20:13:05.588Z,11.92
2023-03-21T20:16:10.651Z,11.83
2023-03-21T20:19:16.011Z,11.85
2023-03-21T20:22:27.286Z,11.78
2023-03-21T20:25:42.309Z,11.87
2023-03-21T20:28:56.133Z,11.68
2023-03-21T20:32:06.908Z,11.51
2023-03-21T20:35:21.084Z,11.44
2023-03-21T20:38:32.872Z,11.22
2023-03-21T20:41:34.526Z,11.22
2023-03-21T20:47:58.148Z,11.20
2023-03-21T20:51:32.137Z,11.36
2023-03-21T20:54:23.841Z,11.23
2023-03-21T20:57:27.236Z,11.29
2023-03-21T21:00:29.701Z,11.11
2023-03-21T21:03:38.293Z,11.18
2023-03-21T21:06:40.274Z,11.10
2023-03-21T21:09:42.921Z,11.27
2023-03-21T21:12:45.340Z,11.38
2023-03-21T21:15:47.064Z,11.34
2023-03-21T21:18:49.379Z,11.18
2023-03-21T21:21:51.153Z,10.95
2023-03-21T21:24:52.710Z,10.98
2023-03-21T21:27:54.372Z,11.13
2023-03-21T21:31:01.318Z,10.72
2023-03-21T21:34:05.549Z,10.63
2023-03-21T21:37:07.205Z,10.54
2023-03-21T21:40:13.634Z,10.57
2023-03-21T21:43:17.096Z,10.95
2023-03-21T21:46:18.690Z,10.89
2023-03-21T21:49:20.348Z,10.68
2023-03-21T21:52:24.212Z,10.55
2023-03-21T21:55:25.805Z,10.54
2023-03-21T21:58:28.125Z,10.68
2023-03-21T22:01:31.377Z,10.81
2023-03-21T22:04:34.145Z,10.44
2023-03-21T22:07:37.570Z,10.72
2023-03-21T22:10:39.829Z,10.73
2023-03-21T22:13:41.638Z,10.60
2023-03-21T22:16:43.980Z,10.42
2023-03-21T22:19:58.926Z,10.45
2023-03-21T22:23:06.292Z,10.62
2023-03-21T22:26:08.397Z,10.74
2023-03-21T22:29:10.556Z,10.65
2023-03-21T22:32:12.238Z,10.69
2023-03-21T22:35:14.196Z,10.74
2023-03-21T22:38:17.954Z,10.44
2023-03-21T22:41:19.565Z,10.49
2023-03-21T22:44:21.267Z,10.44
2023-03-21T22:47:22.877Z,10.44
2023-03-21T22:50:24.431Z,10.43
2023-03-21T22:53:26.347Z,10.36
2023-03-21T22:56:28.017Z,10.40
2023-03-21T22:59:30.205Z,10.24
2023-03-21T23:02:31.865Z,10.41
2023-03-21T23:05:33.460Z,10.59
2023-03-21T23:08:35.098Z,10.47
2023-03-21T23:11:37.589Z,10.43
2023-03-21T23:14:39.192Z,10.52
2023-03-21T23:17:41.060Z,10.36
2023-03-21T23:20:42.946Z,10.44
2023-03-21T23:23:50.116Z,10.39
2023-03-21T23:26:51.780Z,10.21
2023-03-21T23:29:54.219Z,10.37
2023-03-21T23:32:56.094Z,10.35
2023-03-21T23:35:57.707Z,10.91
2023-03-21T23:38:59.348Z,10.91
2023-03-21T23:42:01.083Z,10.72
2023-03-21T23:45:02.771Z,10.50
2023-03-21T23:48:04.620Z,10.27
2023-03-21T23:51:06.496Z,10.22
2023-03-21T23:54:08.338Z,10.28
2023-03-21T23:57:10.986Z,10.37
